createdAt,value
2023-01-07T00:01:31.206Z,56.17
2023-01-07T00:04:00.435Z,57.97
2023-01-07T00:06:33.653Z,58.94
2023-01-07T00:09:02.479Z,59.84
2023-01-07T00:11:32.508Z,60.46
2023-01-07T00:14:01.154Z,64.91
2023-01-07T00:16:30.566Z,66.10
2023-01-07T00:19:00.449Z,61.45
2023-01-07T00:21:29.206Z,56.90
2023-01-07T00:23:59.983Z,56.05
2023-01-07T00:26:31.273Z,57.48
2023-01-07T00:29:00.097Z,58.80
2023-01-07T00:31:30.821Z,59.53
2023-01-07T00:33:59.368Z,60.89
2023-01-07T00:36:29.384Z,64.77
2023-01-07T00:39:11.714Z,65.04
2023-01-07T00:42:06.066Z,60.58
2023-01-07T00:44:34.133Z,54.94
2023-01-07T00:47:02.039Z,55.46
2023-01-07T00:49:32.732Z,56.46
2023-01-07T00:52:00.632Z,57.90
2023-01-07T00:54:28.597Z,59.04
2023-01-07T00:56:56.534Z,59.67
2023-01-07T00:59:24.631Z,60.54
2023-01-07T01:01:52.729Z,61.53
2023-01-07T01:04:20.605Z,65.44
2023-01-07T01:06:48.403Z,65.94
2023-01-07T01:09:16.170Z,61.37
2023-01-07T01:11:44.841Z,56.98
2023-01-07T01:14:12.681Z,56.04
2023-01-07T01:16:40.519Z,57.08
2023-01-07T01:19:08.407Z,58.50
2023-01-07T01:21:36.355Z,59.41
2023-01-07T01:24:04.434Z,60.33
2023-01-07T01:26:32.391Z,61.11
2023-01-07T01:29:00.157Z,64.64
2023-01-07T01:31:28.527Z,64.36
2023-01-07T01:33:56.814Z,63.46
2023-01-07T01:36:25.421Z,60.44
2023-01-07T01:38:56.672Z,55.88
2023-01-07T01:41:24.573Z,55.30
2023-01-07T01:43:53.285Z,56.66
2023-01-07T01:46:24.486Z,57.70
2023-01-07T01:48:57.052Z,58.46
2023-01-07T01:51:26.711Z,59.31
2023-01-07T01:53:55.731Z,60.05
2023-01-07T01:56:32.571Z,60.92
2023-01-07T01:59:04.676Z,65.57
2023-01-07T02:01:34.777Z,66.01
2023-01-07T02:04:10.202Z,61.30
2023-01-07T02:06:52.093Z,55.55
2023-01-07T02:10:10.429Z,54.32
2023-01-07T02:12:47.675Z,55.60
2023-01-07T02:15:25.207Z,57.15
2023-01-07T02:18:28.458Z,58.16
2023-01-07T02:21:35.525Z,58.79
2023-01-07T02:24:06.241Z,59.63
2023-01-07T02:26:54.271Z,60.80
2023-01-07T02:29:25.199Z,66.10
2023-01-07T02:32:21.735Z,65.39
2023-01-07T02:35:13.951Z,59.65
2023-01-07T02:38:00.744Z,53.98
2023-01-07T02:40:43.270Z,54.53
2023-01-07T02:43:45.360Z,55.78
2023-01-07T02:46:30.367Z,56.95
2023-01-07T02:49:00.515Z,58.82
2023-01-07T02:51:35.557Z,59.78
2023-01-07T02:54:04.032Z,59.83
2023-01-07T02:56:52.043Z,60.86
2023-01-07T02:59:29.134Z,66.13
2023-01-07T03:02:21.212Z,64.11
2023-01-07T03:04:54.998Z,57.25
2023-01-07T03:07:48.836Z,55.74
2023-01-07T03:10:22.490Z,56.24
2023-01-07T03:13:02.729Z,57.65
2023-01-07T03:15:50.901Z,58.52
2023-01-07T03:18:22.712Z,58.98
2023-01-07T03:20:54.948Z,59.94
2023-01-07T03:23:23.049Z,60.48
2023-01-07T03:25:52.035Z,59.96
2023-01-07T03:28:24.453Z,61.67
2023-01-07T03:30:53.841Z,65.66
2023-01-07T03:33:26.378Z,66.05
2023-01-07T03:35:56.005Z,60.22
2023-01-07T03:38:24.857Z,53.73
2023-01-07T03:40:53.046Z,52.64
2023-01-07T03:43:23.154Z,53.60
2023-01-07T03:45:52.420Z,55.17
2023-01-07T03:48:20.752Z,56.20
2023-01-07T03:50:49.477Z,56.88
2023-01-07T03:53:17.832Z,57.81
2023-01-07T03:55:47.325Z,58.17
2023-01-07T03:58:15.060Z,58.66
2023-01-07T04:00:42.960Z,59.36
2023-01-07T04:03:14.594Z,60.03
2023-01-07T04:05:44.575Z,60.45
2023-01-07T04:08:14.208Z,61.31
2023-01-07T04:10:43.892Z,61.37
2023-01-07T04:13:12.798Z,65.78
2023-01-07T04:15:42.547Z,67.24
2023-01-07T04:18:13.278Z,60.79
2023-01-07T04:20:41.130Z,54.45
2023-01-07T04:23:09.294Z,53.34
2023-01-07T04:25:37.096Z,54.60
2023-01-07T04:28:05.449Z,55.68
2023-01-07T04:30:35.882Z,56.53
2023-01-07T04:33:05.719Z,57.53
2023-01-07T04:35:34.238Z,58.39
2023-01-07T04:38:02.912Z,59.34
2023-01-07T04:40:30.809Z,60.49
2023-01-07T04:42:59.535Z,61.10
2023-01-07T04:45:27.559Z,65.36
2023-01-07T04:47:56.558Z,66.48
2023-01-07T04:50:24.702Z,61.15
2023-01-07T04:52:53.045Z,55.03
2023-01-07T04:55:20.818Z,54.10
2023-01-07T04:57:49.321Z,55.15
2023-01-07T05:00:18.192Z,56.66
2023-01-07T05:02:47.293Z,57.90
2023-01-07T05:05:15.373Z,59.24
2023-01-07T05:07:44.624Z,59.96
2023-01-07T05:10:13.547Z,60.47
2023-01-07T05:12:41.672Z,60.96
2023-01-07T05:15:11.361Z,65.48
2023-01-07T05:17:40.786Z,67.58
2023-01-07T05:20:09.179Z,61.79
2023-01-07T05:22:37.590Z,55.18
2023-01-07T05:25:06.381Z,53.84
2023-01-07T05:27:34.167Z,55.96
2023-01-07T05:30:03.728Z,56.72
2023-01-07T05:32:31.518Z,58.49
2023-01-07T05:34:59.303Z,59.30
2023-01-07T05:37:27.062Z,60.58
2023-01-07T05:39:55.979Z,61.07
2023-01-07T05:42:23.770Z,64.18
2023-01-07T05:44:51.783Z,66.47
2023-01-07T05:47:19.512Z,63.03
2023-01-07T05:49:47.493Z,59.60
2023-01-07T05:52:15.304Z,56.42
2023-01-07T05:54:43.142Z,55.66
2023-01-07T05:57:11.345Z,56.64
2023-01-07T05:59:39.076Z,57.89
2023-01-07T06:02:06.892Z,59.04
2023-01-07T06:04:34.681Z,59.84
2023-01-07T06:07:02.501Z,60.47
2023-01-07T06:09:30.226Z,61.32
2023-01-07T06:11:58.008Z,66.31
2023-01-07T06:14:25.714Z,66.86
2023-01-07T06:16:53.476Z,61.88
2023-01-07T06:19:23.029Z,56.56
2023-01-07T06:21:50.872Z,55.13
2023-01-07T06:24:18.625Z,55.98
2023-01-07T06:26:46.416Z,57.52
2023-01-07T06:29:14.320Z,58.61
2023-01-07T06:31:42.038Z,60.09
2023-01-07T06:34:10.079Z,61.11
2023-01-07T06:36:37.844Z,61.68
2023-01-07T06:39:05.672Z,65.80
2023-01-07T06:41:33.443Z,65.24
2023-01-07T06:44:01.417Z,61.78
2023-01-07T06:46:29.459Z,57.77
2023-01-07T06:48:57.465Z,56.21
2023-01-07T06:51:25.211Z,57.69
2023-01-07T06:53:52.944Z,58.75
2023-01-07T06:56:21.011Z,60.11
2023-01-07T06:58:48.738Z,60.88
2023-01-07T07:01:16.541Z,65.35
2023-01-07T07:03:44.548Z,64.95
2023-01-07T07:06:12.359Z,60.49
2023-01-07T07:08:40.138Z,56.94
2023-01-07T07:11:07.944Z,56.47
2023-01-07T07:13:36.111Z,57.49
2023-01-07T07:16:04.273Z,58.59
2023-01-07T07:18:32.619Z,59.67
2023-01-07T07:21:00.495Z,60.83
2023-01-07T07:23:28.299Z,61.51
2023-01-07T07:25:56.058Z,64.78
2023-01-07T07:28:23.850Z,66.16
2023-01-07T07:30:51.673Z,61.68
2023-01-07T07:33:19.851Z,56.84
2023-01-07T07:35:48.242Z,55.45
2023-01-07T07:38:17.709Z,56.53
2023-01-07T07:40:46.506Z,57.83
2023-01-07T07:43:15.046Z,59.05
2023-01-07T07:45:43.233Z,59.84
2023-01-07T07:48:13.475Z,60.98
2023-01-07T07:50:41.551Z,65.41
2023-01-07T07:53:10.641Z,64.58
2023-01-07T07:55:39.074Z,59.43
2023-01-07T07:58:06.884Z,54.90
2023-01-07T08:00:34.809Z,54.36
2023-01-07T08:03:02.992Z,55.83
2023-01-07T08:05:31.273Z,57.54
2023-01-07T08:07:59.306Z,58.57
2023-01-07T08:10:27.913Z,59.46
2023-01-07T08:12:55.782Z,60.09
2023-01-07T08:15:23.579Z,60.76
2023-01-07T08:18:02.728Z,61.67
2023-01-07T08:20:31.006Z,66.21
2023-01-07T08:23:00.589Z,65.02
2023-01-07T08:25:29.848Z,62.61
2023-01-07T08:27:59.092Z,60.02
2023-01-07T08:30:28.022Z,57.58
2023-01-07T08:32:56.360Z,57.13
2023-01-07T08:35:24.320Z,58.51
2023-01-07T08:37:52.144Z,59.85
2023-01-07T08:40:19.883Z,60.86
2023-01-07T08:42:47.700Z,63.79
2023-01-07T08:45:15.623Z,65.76
2023-01-07T08:47:47.670Z,62.86
2023-01-07T08:50:15.450Z,60.51
2023-01-07T08:52:46.575Z,57.76
2023-01-07T08:55:14.455Z,57.96
2023-01-07T08:57:42.211Z,59.15
2023-01-07T09:00:10.678Z,60.49
2023-01-07T09:02:38.501Z,61.63
2023-01-07T09:05:07.084Z,64.61
2023-01-07T09:07:35.138Z,66.40
2023-01-07T09:10:03.918Z,62.92
2023-01-07T09:12:31.742Z,57.68
2023-01-07T09:14:59.567Z,55.29
2023-01-07T09:17:28.015Z,56.56
2023-01-07T09:19:55.756Z,56.45
2023-01-07T09:22:23.667Z,56.97
2023-01-07T09:24:51.439Z,57.93
2023-01-07T09:27:19.220Z,58.43
2023-01-07T09:29:46.947Z,58.40
2023-01-07T09:32:14.777Z,58.75
2023-01-07T09:34:42.472Z,59.30
2023-01-07T09:37:10.197Z,59.48
2023-01-07T09:39:37.987Z,60.02
2023-01-07T09:42:13.696Z,60.90
2023-01-07T09:45:01.414Z,65.20
2023-01-07T09:47:29.710Z,64.80
2023-01-07T09:50:02.256Z,58.02
2023-01-07T09:52:44.433Z,55.32
2023-01-07T09:55:19.972Z,56.13
2023-01-07T09:57:48.416Z,57.20
2023-01-07T10:00:22.669Z,57.70
2023-01-07T10:03:06.485Z,57.33
2023-01-07T10:05:37.021Z,57.10
2023-01-07T10:08:32.164Z,56.38
2023-01-07T10:11:03.109Z,55.66
2023-01-07T10:13:49.188Z,55.72
2023-01-07T10:16:45.906Z,56.95
2023-01-07T10:19:19.768Z,56.86
2023-01-07T10:21:54.004Z,57.37
2023-01-07T10:24:27.844Z,58.31
2023-01-07T10:26:58.821Z,58.64
2023-01-07T10:29:32.791Z,59.12
2023-01-07T10:32:10.640Z,59.67
2023-01-07T10:34:46.244Z,60.36
2023-01-07T10:37:33.783Z,60.75
2023-01-07T10:40:23.108Z,60.93
2023-01-07T10:42:54.535Z,61.81
2023-01-07T10:45:50.117Z,66.09
2023-01-07T10:48:39.812Z,63.98
2023-01-07T10:51:23.374Z,55.47
2023-01-07T10:54:06.546Z,54.21
2023-01-07T10:56:47.000Z,55.59
2023-01-07T10:59:17.774Z,56.65
2023-01-07T11:01:49.067Z,57.88
2023-01-07T11:04:17.622Z,58.44
2023-01-07T11:06:57.565Z,59.39
2023-01-07T11:09:35.618Z,59.82
2023-01-07T11:12:21.563Z,60.25
2023-01-07T11:14:49.664Z,61.02
2023-01-07T11:17:36.396Z,65.31
2023-01-07T11:20:05.378Z,64.82
2023-01-07T11:22:35.763Z,57.67
2023-01-07T11:25:28.165Z,55.18
2023-01-07T11:28:01.094Z,55.88
2023-01-07T11:30:29.656Z,56.35
2023-01-07T11:33:07.125Z,56.74
2023-01-07T11:35:35.111Z,58.02
2023-01-07T11:38:03.056Z,58.80
2023-01-07T11:40:32.502Z,59.23
2023-01-07T11:43:01.578Z,60.03
2023-01-07T11:45:38.531Z,60.42
2023-01-07T11:48:08.732Z,60.73
2023-01-07T11:50:37.518Z,61.42
2023-01-07T11:53:14.569Z,61.71
2023-01-07T11:56:00.041Z,66.40
2023-01-07T11:58:33.938Z,64.65
2023-01-07T12:01:07.592Z,57.12
2023-01-07T12:03:46.151Z,54.62
2023-01-07T12:06:19.364Z,55.69
2023-01-07T12:09:27.244Z,56.72
2023-01-07T12:11:57.590Z,56.84
2023-01-07T12:14:31.447Z,57.61
2023-01-07T12:17:16.399Z,56.97
2023-01-07T12:20:06.210Z,56.45
2023-01-07T12:22:40.172Z,56.56
2023-01-07T12:25:34.648Z,56.04
2023-01-07T12:28:46.961Z,55.96
2023-01-07T12:31:39.882Z,55.93
2023-01-07T12:34:25.728Z,55.14
2023-01-07T12:37:12.630Z,54.63
2023-01-07T12:39:44.092Z,53.61
2023-01-07T12:44:56.941Z,52.22
2023-01-07T12:47:31.322Z,51.08
2023-01-07T12:50:06.934Z,51.33
2023-01-07T12:53:00.740Z,51.38
2023-01-07T12:55:35.713Z,50.56
2023-01-07T12:58:26.016Z,50.44
2023-01-07T13:01:05.269Z,51.02
2023-01-07T13:03:45.405Z,51.23
2023-01-07T13:06:34.566Z,49.67
2023-01-07T13:09:09.790Z,49.15
2023-01-07T13:12:01.134Z,48.71
2023-01-07T13:14:37.389Z,48.33
2023-01-07T13:17:24.747Z,48.14
2023-01-07T13:19:53.795Z,48.56
2023-01-07T13:22:30.783Z,48.59
2023-01-07T13:25:17.837Z,49.52
2023-01-07T13:28:19.330Z,48.04
2023-01-07T13:31:29.856Z,47.87
2023-01-07T13:34:42.139Z,46.99
2023-01-07T13:37:31.444Z,48.65
2023-01-07T13:40:06.266Z,46.00
2023-01-07T13:42:43.219Z,44.98
2023-01-07T13:45:25.100Z,44.78
2023-01-07T13:47:58.587Z,44.60
2023-01-07T13:50:39.519Z,44.88
2023-01-07T13:53:27.396Z,44.95
2023-01-07T13:56:17.844Z,45.18
2023-01-07T13:58:56.302Z,45.62
2023-01-07T14:01:34.959Z,45.24
2023-01-07T14:04:09.089Z,46.60
2023-01-07T14:06:40.013Z,47.02
2023-01-07T14:09:07.761Z,46.13
2023-01-07T14:11:36.187Z,46.30
2023-01-07T14:14:13.118Z,46.58
2023-01-07T14:16:43.184Z,46.72
2023-01-07T14:19:16.743Z,47.96
2023-01-07T14:22:01.528Z,48.05
2023-01-07T14:24:41.633Z,47.87
2023-01-07T14:27:30.513Z,48.86
2023-01-07T14:30:15.970Z,48.90
2023-01-07T14:32:44.883Z,49.38
2023-01-07T14:35:12.934Z,49.40
2023-01-07T14:37:45.223Z,48.74
2023-01-07T14:40:34.595Z,48.57
2023-01-07T14:43:03.734Z,48.34
2023-01-07T14:45:38.322Z,48.46
2023-01-07T14:48:08.829Z,48.59
2023-01-07T14:50:42.421Z,49.22
2023-01-07T14:53:16.154Z,49.70
2023-01-07T14:55:57.037Z,50.43
2023-01-07T14:58:39.924Z,51.05
2023-01-07T15:01:26.712Z,51.69
2023-01-07T15:04:18.067Z,52.40
2023-01-07T15:06:46.449Z,52.97
2023-01-07T15:09:36.666Z,53.66
2023-01-07T15:12:26.513Z,54.14
2023-01-07T15:15:22.815Z,54.63
2023-01-07T15:17:50.641Z,55.14
2023-01-07T15:20:18.452Z,55.79
2023-01-07T15:23:10.875Z,56.29
2023-01-07T15:26:05.690Z,56.59
2023-01-07T15:28:46.115Z,57.03
2023-01-07T15:31:36.126Z,57.44
2023-01-07T15:34:08.867Z,57.79
2023-01-07T15:36:45.520Z,58.26
2023-01-07T15:39:22.633Z,58.67
2023-01-07T15:41:53.155Z,58.88
2023-01-07T15:44:22.353Z,59.26
2023-01-07T15:46:50.347Z,59.48
2023-01-07T15:49:23.995Z,59.91
2023-01-07T15:51:59.714Z,60.58
2023-01-07T15:54:34.864Z,60.48
2023-01-07T15:57:04.696Z,60.76
2023-01-07T15:59:35.695Z,60.86
2023-01-07T16:02:24.231Z,60.98
2023-01-07T16:04:55.185Z,61.25
2023-01-07T16:07:43.186Z,61.48
2023-01-07T16:10:22.147Z,61.65
2023-01-07T16:12:52.548Z,61.82
2023-01-07T16:15:21.659Z,61.98
2023-01-07T16:17:51.330Z,65.64
2023-01-07T16:20:29.400Z,65.59
2023-01-07T16:23:27.066Z,60.11
2023-01-07T16:26:10.595Z,54.26
2023-01-07T16:28:41.960Z,53.53
2023-01-07T16:31:13.159Z,54.62
2023-01-07T16:33:42.488Z,55.53
2023-01-07T16:36:19.611Z,56.25
2023-01-07T16:38:52.185Z,57.04
2023-01-07T16:41:23.511Z,57.72
2023-01-07T16:43:54.157Z,58.25
2023-01-07T16:46:29.760Z,58.77
2023-01-07T16:49:30.205Z,59.18
2023-01-07T16:52:04.128Z,59.58
2023-01-07T16:54:37.355Z,60.20
2023-01-07T16:57:11.709Z,60.35
2023-01-07T16:59:45.843Z,60.93
2023-01-07T17:02:28.887Z,61.02
2023-01-07T17:05:12.849Z,61.17
2023-01-07T17:07:41.494Z,61.37
2023-01-07T17:10:28.037Z,61.69
2023-01-07T17:12:59.472Z,61.79
2023-01-07T17:15:33.745Z,64.85
2023-01-07T17:18:14.515Z,66.14
2023-01-07T17:20:53.264Z,60.59
2023-01-07T17:23:27.549Z,55.11
2023-01-07T17:26:07.809Z,54.05
2023-01-07T17:28:43.311Z,55.11
2023-01-07T17:31:11.292Z,56.42
2023-01-07T17:33:39.690Z,57.36
2023-01-07T17:36:15.024Z,58.69
2023-01-07T17:38:43.704Z,59.37
2023-01-07T17:41:33.229Z,60.21
2023-01-07T17:44:01.869Z,60.82
2023-01-07T17:46:32.613Z,61.79
2023-01-07T17:49:03.661Z,65.18
2023-01-07T17:51:33.053Z,67.35
2023-01-07T17:54:01.012Z,65.64
2023-01-07T17:56:29.263Z,62.05
2023-01-07T17:58:57.090Z,58.69
2023-01-07T18:01:25.993Z,57.61
2023-01-07T18:03:54.365Z,59.19
2023-01-07T18:06:24.653Z,60.89
2023-01-07T18:08:53.449Z,61.36
2023-01-07T18:11:43.585Z,65.69
2023-01-07T18:14:15.517Z,66.76
2023-01-07T18:16:43.401Z,62.70
2023-01-07T18:19:14.884Z,58.27
2023-01-07T18:21:43.139Z,56.78
2023-01-07T18:24:18.579Z,58.08
2023-01-07T18:26:47.123Z,59.57
2023-01-07T18:29:15.019Z,60.51
2023-01-07T18:31:44.097Z,61.16
2023-01-07T18:34:13.672Z,66.09
2023-01-07T18:36:41.782Z,65.94
2023-01-07T18:39:10.773Z,60.72
2023-01-07T18:41:39.723Z,55.42
2023-01-07T18:44:07.570Z,54.80
2023-01-07T18:46:35.336Z,56.16
2023-01-07T18:49:03.158Z,57.28
2023-01-07T18:51:30.886Z,58.56
2023-01-07T18:53:58.901Z,59.47
2023-01-07T18:56:26.736Z,60.00
2023-01-07T18:58:55.188Z,60.57
2023-01-07T19:01:23.429Z,61.31
2023-01-07T19:03:51.625Z,65.33
2023-01-07T19:06:19.611Z,65.12
2023-01-07T19:08:47.320Z,60.92
2023-01-07T19:11:22.257Z,55.72
2023-01-07T19:13:50.104Z,55.39
2023-01-07T19:16:18.223Z,57.69
2023-01-07T19:18:46.411Z,59.15
2023-01-07T19:21:14.798Z,59.59
2023-01-07T19:23:42.805Z,61.04
2023-01-07T19:26:11.530Z,61.57
2023-01-07T19:28:39.304Z,64.50
2023-01-07T19:31:08.462Z,65.94
2023-01-07T19:33:36.889Z,63.29
2023-01-07T19:36:09.021Z,60.46
2023-01-07T19:38:42.248Z,56.42
2023-01-07T19:41:16.914Z,56.14
2023-01-07T19:43:46.424Z,57.70
2023-01-07T19:46:21.114Z,58.98
2023-01-07T19:48:49.531Z,59.81
2023-01-07T19:51:17.329Z,60.51
2023-01-07T19:53:45.162Z,61.67
2023-01-07T19:56:12.997Z,65.60
2023-01-07T19:58:42.102Z,65.90
2023-01-07T20:01:15.824Z,61.36
2023-01-07T20:03:44.392Z,56.46
2023-01-07T20:06:14.581Z,55.59
2023-01-07T20:08:42.439Z,56.90
2023-01-07T20:11:10.689Z,57.45
2023-01-07T20:13:39.435Z,58.43
2023-01-07T20:16:09.575Z,59.55
2023-01-07T20:18:39.003Z,60.47
2023-01-07T20:21:07.661Z,64.46
2023-01-07T20:23:38.874Z,65.37
2023-01-07T20:26:12.021Z,60.17
2023-01-07T20:28:41.051Z,55.61
2023-01-07T20:31:11.498Z,54.95
2023-01-07T20:33:40.690Z,57.49
2023-01-07T20:36:10.795Z,58.62
2023-01-07T20:38:39.206Z,59.84
2023-01-07T20:41:08.358Z,60.89
2023-01-07T20:43:37.187Z,65.49
2023-01-07T20:46:07.914Z,64.68
2023-01-07T20:48:35.944Z,60.65
2023-01-07T20:51:08.736Z,54.87
2023-01-07T20:53:36.693Z,54.75
2023-01-07T20:56:05.333Z,56.57
2023-01-07T20:58:35.193Z,58.29
2023-01-07T21:01:07.913Z,59.67
2023-01-07T21:03:35.965Z,60.91
2023-01-07T21:06:04.308Z,61.49
2023-01-07T21:08:32.000Z,66.89
2023-01-07T21:10:59.776Z,66.57
2023-01-07T21:13:27.597Z,61.48
2023-01-07T21:16:02.723Z,56.91
2023-01-07T21:18:31.894Z,55.59
2023-01-07T21:21:00.922Z,57.30
2023-01-07T21:23:29.077Z,59.10
2023-01-07T21:25:57.124Z,60.46
2023-01-07T21:28:25.882Z,61.61
2023-01-07T21:30:53.704Z,66.34
2023-01-07T21:33:21.442Z,65.12
2023-01-07T21:35:49.167Z,60.46
2023-01-07T21:38:17.320Z,55.02
2023-01-07T21:40:47.116Z,55.04
2023-01-07T21:43:14.816Z,57.60
2023-01-07T21:45:42.813Z,59.13
2023-01-07T21:48:10.684Z,59.94
2023-01-07T21:50:38.713Z,64.12
2023-01-07T21:53:06.584Z,65.67
2023-01-07T21:55:37.862Z,61.77
2023-01-07T21:58:05.650Z,57.39
2023-01-07T22:00:33.411Z,56.30
2023-01-07T22:03:01.403Z,57.75
2023-01-07T22:05:29.493Z,59.62
2023-01-07T22:07:57.206Z,61.07
2023-01-07T22:10:25.066Z,64.70
2023-01-07T22:12:52.927Z,66.00
2023-01-07T22:19:40.962Z,56.40
2023-01-07T22:22:12.047Z,58.10
2023-01-07T22:24:44.176Z,60.24
2023-01-07T22:27:13.174Z,64.20
2023-01-07T22:29:46.956Z,64.88
2023-01-07T22:32:23.116Z,60.10
2023-01-07T22:34:52.143Z,55.18
2023-01-07T22:37:21.861Z,55.81
2023-01-07T22:39:57.976Z,57.90
2023-01-07T22:42:33.796Z,59.73
2023-01-07T22:45:10.005Z,60.30
2023-01-07T22:47:41.935Z,65.16
2023-01-07T22:50:11.331Z,65.79
2023-01-07T22:52:40.245Z,61.04
2023-01-07T22:55:09.504Z,57.09
2023-01-07T22:57:39.513Z,55.93
2023-01-07T23:00:16.482Z,58.04
2023-01-07T23:02:45.490Z,59.12
2023-01-07T23:05:14.603Z,60.15
2023-01-07T23:07:43.354Z,65.03
2023-01-07T23:10:12.286Z,65.62
2023-01-07T23:12:41.061Z,60.42
2023-01-07T23:15:10.391Z,54.68
2023-01-07T23:17:39.342Z,53.96
2023-01-07T23:20:08.953Z,55.96
2023-01-07T23:22:38.052Z,58.20
2023-01-07T23:25:07.059Z,59.85
2023-01-07T23:27:34.907Z,59.98
2023-01-07T23:30:02.849Z,61.08
2023-01-07T23:32:30.717Z,61.72
2023-01-07T23:34:58.432Z,66.70
2023-01-07T23:37:26.404Z,66.41
2023-01-07T23:39:54.105Z,61.39
2023-01-07T23:42:22.075Z,55.50
2023-01-07T23:44:49.851Z,54.89
2023-01-07T23:47:17.573Z,56.51
2023-01-07T23:49:45.332Z,58.41
2023-01-07T23:52:13.103Z,59.17
2023-01-07T23:54:41.175Z,59.88
2023-01-07T23:57:09.269Z,60.63
2023-01-07T23:59:37.844Z,61.04
